createdAt,value
2019-06-07T00:00:38.674Z,20.30
2019-06-07T00:03:10.593Z,20.30
2019-06-07T00:05:39.979Z,20.30
2019-06-07T00:08:17.187Z,20.30
2019-06-07T00:10:41.544Z,20.30
2019-06-07T00:13:12.924Z,20.30
2019-06-07T00:15:42.349Z,20.30
2019-06-07T00:18:14.987Z,20.30
2019-06-07T00:20:42.845Z,20.30
2019-06-07T00:23:14.934Z,20.30
2019-06-07T00:25:43.525Z,20.30
2019-06-07T00:28:13.365Z,20.30
2019-06-07T00:30:51.766Z,20.30
2019-06-07T00:33:18.776Z,20.30
2019-06-07T00:35:46.400Z,20.40
2019-06-07T00:38:18.870Z,20.30
2019-06-07T00:40:46.955Z,20.30
2019-06-07T00:43:17.552Z,20.20
2019-06-07T00:45:47.451Z,20.20
2019-06-07T00:48:27.454Z,20.20
2019-06-07T00:50:47.987Z,20.20
2019-06-07T00:53:26.959Z,20.30
2019-06-07T00:55:48.467Z,20.20
2019-06-07T00:58:21.820Z,20.20
2019-06-07T01:00:50.484Z,20.20
2019-06-07T01:03:22.489Z,20.20
2019-06-07T01:05:50.952Z,20.20
2019-06-07T01:08:22.794Z,20.20
2019-06-07T01:10:53.966Z,20.20
2019-06-07T01:13:26.173Z,20.20
2019-06-07T01:15:53.635Z,20.20
2019-06-07T01:18:37.265Z,20.20
2019-06-07T01:20:55.140Z,20.20
2019-06-07T01:24:03.288Z,20.20
2019-06-07T01:25:55.612Z,20.20
2019-06-07T01:28:27.092Z,20.20
2019-06-07T01:30:57.162Z,20.20
2019-06-07T01:33:46.437Z,20.20
2019-06-07T01:35:57.766Z,20.30
2019-06-07T01:38:29.749Z,20.20
2019-06-07T01:40:58.236Z,20.30
2019-06-07T01:43:30.478Z,20.30
2019-06-07T01:46:12.913Z,20.30
2019-06-07T01:48:49.576Z,20.30
2019-06-07T01:51:13.376Z,20.20
2019-06-07T01:53:42.841Z,20.20
2019-06-07T01:56:12.315Z,20.20
2019-06-07T01:58:41.712Z,20.20
2019-06-07T02:01:35.274Z,20.20
2019-06-07T02:04:01.528Z,20.20
2019-06-07T02:06:32.123Z,20.20
2019-06-07T02:09:01.968Z,20.20
2019-06-07T02:11:33.713Z,20.20
2019-06-07T02:14:05.010Z,20.20
2019-06-07T02:16:34.404Z,20.20
2019-06-07T02:19:04.080Z,20.10
2019-06-07T02:21:34.548Z,20.10
2019-06-07T02:24:04.391Z,20.10
2019-06-07T02:26:33.784Z,20.10
2019-06-07T02:29:03.171Z,20.10
2019-06-07T02:31:39.144Z,20.10
2019-06-07T02:34:03.654Z,20.10
2019-06-07T02:36:41.088Z,20.10
2019-06-07T02:39:06.756Z,20.00
2019-06-07T02:41:40.038Z,20.10
2019-06-07T02:44:07.565Z,20.00
2019-06-07T02:46:46.847Z,20.10
2019-06-07T02:49:08.060Z,20.00
2019-06-07T02:51:41.552Z,20.00
2019-06-07T02:54:08.536Z,20.00
2019-06-07T02:56:52.278Z,20.00
2019-06-07T02:59:10.642Z,19.90
2019-06-07T03:01:42.534Z,19.90
2019-06-07T03:04:11.813Z,19.90
2019-06-07T03:06:44.035Z,19.90
2019-06-07T03:09:13.470Z,19.90
2019-06-07T03:11:45.486Z,19.90
2019-06-07T03:14:17.000Z,19.90
2019-06-07T03:16:53.503Z,19.90
2019-06-07T03:19:34.644Z,19.90
2019-06-07T03:22:04.787Z,19.90
2019-06-07T03:24:39.145Z,19.90
2019-06-07T03:27:34.231Z,19.80
2019-06-07T03:29:41.332Z,19.80
2019-06-07T03:32:15.438Z,19.80
2019-06-07T03:34:44.837Z,19.80
2019-06-07T03:37:14.291Z,19.80
2019-06-07T03:39:43.688Z,19.80
2019-06-07T03:42:13.091Z,19.80
2019-06-07T03:44:42.496Z,19.80
2019-06-07T03:47:11.887Z,19.80
2019-06-07T03:49:42.576Z,19.80
2019-06-07T03:52:27.191Z,19.80
2019-06-07T03:54:56.866Z,19.80
2019-06-07T03:57:28.644Z,19.80
2019-06-07T03:59:57.419Z,19.80
2019-06-07T04:02:27.855Z,19.80
2019-06-07T04:04:57.390Z,19.80
2019-06-07T04:07:28.954Z,19.90
2019-06-07T04:09:59.065Z,19.90
2019-06-07T04:12:28.567Z,19.90
2019-06-07T04:14:58.124Z,19.90
2019-06-07T04:17:31.141Z,19.90
2019-06-07T04:20:02.026Z,19.90
2019-06-07T04:22:35.668Z,20.00
2019-06-07T04:25:05.772Z,19.90
2019-06-07T04:27:37.779Z,19.90
2019-06-07T04:30:08.751Z,19.80
2019-06-07T04:32:40.638Z,19.80
2019-06-07T04:35:09.935Z,19.80
2019-06-07T04:37:41.541Z,19.80
2019-06-07T04:40:12.091Z,19.80
2019-06-07T04:42:45.169Z,19.90
2019-06-07T04:45:32.933Z,19.90
2019-06-07T04:47:48.907Z,20.00
2019-06-07T04:50:18.377Z,20.00
2019-06-07T04:52:47.991Z,20.00
2019-06-07T04:55:17.388Z,20.00
2019-06-07T04:57:46.768Z,20.00
2019-06-07T05:00:49.892Z,20.00
2019-06-07T05:02:50.591Z,20.00
2019-06-07T05:05:20.114Z,20.00
2019-06-07T05:07:49.520Z,20.00
2019-06-07T05:10:18.907Z,20.00
2019-06-07T05:12:48.389Z,20.10
2019-06-07T05:15:17.936Z,20.10
2019-06-07T05:17:47.340Z,20.10
2019-06-07T05:20:17.045Z,20.10
2019-06-07T05:22:46.731Z,20.10
2019-06-07T05:25:16.709Z,20.10
2019-06-07T05:27:46.915Z,20.20
2019-06-07T05:30:58.537Z,20.30
2019-06-07T05:33:13.221Z,20.30
2019-06-07T05:35:43.538Z,20.20
2019-06-07T05:38:13.176Z,20.30
2019-06-07T05:40:48.564Z,20.40
2019-06-07T05:43:23.700Z,20.40
2019-06-07T05:45:53.436Z,20.50
2019-06-07T05:48:23.047Z,20.40
2019-06-07T05:50:56.923Z,20.40
2019-06-07T05:53:24.688Z,20.50
2019-06-07T05:55:54.162Z,20.40
2019-06-07T05:58:23.560Z,20.50
2019-06-07T06:00:52.939Z,20.50
2019-06-07T06:03:22.324Z,20.60
2019-06-07T06:05:55.341Z,20.50
2019-06-07T06:08:22.809Z,20.50
2019-06-07T06:10:52.193Z,20.50
2019-06-07T06:13:21.963Z,20.50
2019-06-07T06:16:01.310Z,20.60
2019-06-07T06:18:22.493Z,20.70
2019-06-07T06:21:15.502Z,20.60
2019-06-07T06:23:43.361Z,20.60
2019-06-07T06:26:13.479Z,20.60
2019-06-07T06:28:45.401Z,20.70
2019-06-07T06:31:14.880Z,20.70
2019-06-07T06:33:45.259Z,20.60
2019-06-07T06:36:15.489Z,20.70
2019-06-07T06:38:47.148Z,20.70
2019-06-07T06:41:16.894Z,20.80
2019-06-07T06:43:51.760Z,20.70
2019-06-07T06:46:37.428Z,20.80
2019-06-07T06:48:54.971Z,20.80
2019-06-07T06:51:20.324Z,20.80
2019-06-07T06:53:52.566Z,20.80
2019-06-07T06:56:21.260Z,20.70
2019-06-07T06:59:26.926Z,20.80
2019-06-07T07:01:21.819Z,20.80
2019-06-07T07:04:11.280Z,20.80
2019-06-07T07:06:26.290Z,20.80
2019-06-07T07:08:54.419Z,20.80
2019-06-07T07:11:52.324Z,20.90
2019-06-07T07:14:08.687Z,20.90
2019-06-07T07:16:38.109Z,21.00
2019-06-07T07:19:07.507Z,21.00
2019-06-07T07:21:36.904Z,21.20
2019-06-07T07:24:21.096Z,21.20
2019-06-07T07:26:37.728Z,21.30
2019-06-07T07:29:07.139Z,21.30
2019-06-07T07:31:36.603Z,21.40
2019-06-07T07:34:32.540Z,21.40
2019-06-07T07:36:39.764Z,21.40
2019-06-07T07:39:08.317Z,21.50
2019-06-07T07:41:37.767Z,21.50
2019-06-07T07:44:07.986Z,21.60
2019-06-07T07:46:38.268Z,21.60
2019-06-07T07:49:07.720Z,21.60
2019-06-07T07:51:37.245Z,21.70
2019-06-07T07:54:10.498Z,21.80
2019-06-07T07:56:37.707Z,21.80
2019-06-07T07:59:08.129Z,21.70
2019-06-07T08:01:37.762Z,21.70
2019-06-07T08:04:07.236Z,21.70
2019-06-07T08:06:36.700Z,21.80
2019-06-07T08:09:07.823Z,21.80
2019-06-07T08:11:37.196Z,21.80
2019-06-07T08:14:06.595Z,21.80
2019-06-07T08:16:35.967Z,21.90
2019-06-07T08:19:05.531Z,21.90
2019-06-07T08:21:34.976Z,22.00
2019-06-07T08:24:05.441Z,22.00
2019-06-07T08:26:35.007Z,22.10
2019-06-07T08:29:04.773Z,22.10
2019-06-07T08:31:34.151Z,22.10
2019-06-07T08:34:03.689Z,22.10
2019-06-07T08:36:41.909Z,22.10
2019-06-07T08:39:07.805Z,22.20
2019-06-07T08:41:37.520Z,22.20
2019-06-07T08:44:22.708Z,22.30
2019-06-07T08:46:38.067Z,22.30
2019-06-07T08:49:07.468Z,22.30
2019-06-07T08:51:37.032Z,22.40
2019-06-07T08:54:21.798Z,22.40
2019-06-07T08:56:53.679Z,22.40
2019-06-07T08:59:22.649Z,22.40
2019-06-07T09:01:57.981Z,22.40
2019-06-07T09:04:23.916Z,22.40
2019-06-07T09:07:07.354Z,22.40
2019-06-07T09:09:24.394Z,22.40
2019-06-07T09:11:54.715Z,22.50
2019-06-07T09:14:24.867Z,22.40
2019-06-07T09:17:00.167Z,22.40
2019-06-07T09:19:25.343Z,22.50
2019-06-07T09:21:57.444Z,22.50
2019-06-07T09:24:26.002Z,22.60
2019-06-07T09:26:55.930Z,22.60
2019-06-07T09:29:26.729Z,22.70
2019-06-07T09:31:59.765Z,22.70
2019-06-07T09:34:27.381Z,22.80
2019-06-07T09:36:58.178Z,22.70
2019-06-07T09:39:27.935Z,22.80
2019-06-07T09:41:58.687Z,22.70
2019-06-07T09:44:42.413Z,22.80
2019-06-07T09:47:30.456Z,22.80
2019-06-07T09:49:43.011Z,22.90
2019-06-07T09:52:12.523Z,22.80
2019-06-07T09:55:05.822Z,22.80
2019-06-07T09:57:17.421Z,22.80
2019-06-07T10:00:38.266Z,22.80
2019-06-07T10:02:36.092Z,22.90
2019-06-07T10:05:13.677Z,22.90
2019-06-07T10:07:51.450Z,22.90
2019-06-07T10:12:41.407Z,22.90
2019-06-07T10:15:12.971Z,22.90
2019-06-07T10:17:42.373Z,23.00
2019-06-07T10:20:12.395Z,23.00
2019-06-07T10:22:41.992Z,23.00
2019-06-07T10:25:11.830Z,23.00
2019-06-07T10:27:41.312Z,23.00
2019-06-07T10:30:12.117Z,23.00
2019-06-07T10:32:41.530Z,23.10
2019-06-07T10:35:16.066Z,23.00
2019-06-07T10:37:43.615Z,23.00
2019-06-07T10:40:13.733Z,22.90
2019-06-07T10:42:43.136Z,22.90
2019-06-07T10:45:12.964Z,22.90
2019-06-07T10:47:42.556Z,22.90
2019-06-07T10:50:12.703Z,22.90
2019-06-07T10:52:42.401Z,23.00
2019-06-07T10:55:12.696Z,22.90
2019-06-07T10:57:43.265Z,22.90
2019-06-07T11:00:14.533Z,22.90
2019-06-07T11:02:44.004Z,22.80
2019-06-07T11:05:14.490Z,22.80
2019-06-07T11:07:44.008Z,22.80
2019-06-07T11:10:19.076Z,22.80
2019-06-07T11:12:59.203Z,22.70
2019-06-07T11:15:28.696Z,22.80
2019-06-07T11:17:59.172Z,22.80
2019-06-07T11:20:28.644Z,22.80
2019-06-07T11:22:58.049Z,22.70
2019-06-07T11:25:27.440Z,22.70
2019-06-07T11:27:56.826Z,22.70
2019-06-07T11:30:26.231Z,22.80
2019-06-07T11:32:55.619Z,22.90
2019-06-07T11:35:25.127Z,22.90
2019-06-07T11:37:54.619Z,22.90
2019-06-07T11:40:31.985Z,22.90
2019-06-07T11:42:55.153Z,22.80
2019-06-07T11:45:24.562Z,22.70
2019-06-07T11:47:54.008Z,22.70
2019-06-07T11:50:23.395Z,22.80
2019-06-07T11:52:52.795Z,22.80
2019-06-07T11:55:22.243Z,22.80
2019-06-07T11:57:51.640Z,22.70
2019-06-07T12:00:21.422Z,22.80
2019-06-07T12:02:50.890Z,22.90
2019-06-07T12:05:20.503Z,22.80
2019-06-07T12:07:50.114Z,22.80
2019-06-07T12:10:22.783Z,22.80
2019-06-07T12:12:51.018Z,22.80
2019-06-07T12:15:20.553Z,22.80
2019-06-07T12:17:50.042Z,22.90
2019-06-07T12:20:21.103Z,22.80
2019-06-07T12:22:50.682Z,22.90
2019-06-07T12:25:24.847Z,22.90
2019-06-07T12:27:51.329Z,22.90
2019-06-07T12:30:27.267Z,22.80
2019-06-07T12:32:52.181Z,22.80
2019-06-07T12:35:21.905Z,22.80
2019-06-07T12:37:51.458Z,22.70
2019-06-07T12:40:30.064Z,22.70
2019-06-07T12:42:53.372Z,22.80
2019-06-07T12:45:43.696Z,22.80
2019-06-07T12:47:54.043Z,22.70
2019-06-07T12:50:39.478Z,22.70
2019-06-07T12:52:55.551Z,22.60
2019-06-07T12:55:24.979Z,22.60
2019-06-07T12:57:54.425Z,22.50
2019-06-07T13:00:24.467Z,22.40
2019-06-07T13:02:54.037Z,22.40
2019-06-07T13:05:23.879Z,22.40
2019-06-07T13:07:53.446Z,22.30
2019-06-07T13:10:23.991Z,22.20
2019-06-07T13:12:54.604Z,22.30
2019-06-07T13:15:25.985Z,22.40
2019-06-07T13:17:55.462Z,22.50
2019-06-07T13:20:45.719Z,22.50
2019-06-07T13:23:16.069Z,22.50
2019-06-07T13:25:46.784Z,22.50
2019-06-07T13:28:17.272Z,22.50
2019-06-07T13:30:47.340Z,22.50
2019-06-07T13:33:16.898Z,22.40
2019-06-07T13:35:46.414Z,22.40
2019-06-07T13:38:25.571Z,22.40
2019-06-07T13:40:56.295Z,22.40
2019-06-07T13:43:28.148Z,22.40
2019-06-07T13:45:57.761Z,22.40
2019-06-07T13:48:27.845Z,22.30
2019-06-07T13:50:57.500Z,22.20
2019-06-07T13:53:41.279Z,22.30
2019-06-07T13:56:10.755Z,22.40
2019-06-07T13:58:40.220Z,22.40
2019-06-07T14:01:10.524Z,22.50
2019-06-07T14:03:40.006Z,22.40
2019-06-07T14:06:09.371Z,22.40
2019-06-07T14:08:39.120Z,22.30
2019-06-07T14:11:08.527Z,22.40
2019-06-07T14:13:37.992Z,22.30
2019-06-07T14:16:07.486Z,22.30
2019-06-07T14:18:36.953Z,22.30
2019-06-07T14:21:06.347Z,22.20
2019-06-07T14:23:48.284Z,22.20
2019-06-07T14:26:07.045Z,22.10
2019-06-07T14:28:36.459Z,22.10
2019-06-07T14:31:05.932Z,22.10
2019-06-07T14:33:35.334Z,22.10
2019-06-07T14:36:04.785Z,22.20
2019-06-07T14:38:37.467Z,22.20
2019-06-07T14:41:05.266Z,22.20
2019-06-07T14:43:34.669Z,22.10
2019-06-07T14:46:04.342Z,22.10
2019-06-07T14:48:34.592Z,22.10
2019-06-07T14:51:05.800Z,22.10
2019-06-07T14:53:35.302Z,22.10
2019-06-07T14:56:04.911Z,22.00
2019-06-07T14:58:40.003Z,22.00
2019-06-07T15:01:05.675Z,21.90
2019-06-07T15:03:35.096Z,21.90
2019-06-07T15:06:04.496Z,22.00
2019-06-07T15:08:34.904Z,21.90
2019-06-07T15:11:04.485Z,21.80
2019-06-07T15:13:35.725Z,21.70
2019-06-07T15:16:05.584Z,21.80
2019-06-07T15:18:36.168Z,21.80
2019-06-07T15:21:06.836Z,21.90
2019-06-07T15:23:36.406Z,21.90
2019-06-07T15:26:07.040Z,21.90
2019-06-07T15:28:38.143Z,21.90
2019-06-07T15:31:27.842Z,21.80
2019-06-07T15:33:57.385Z,21.80
2019-06-07T15:36:28.084Z,21.70
2019-06-07T15:38:57.888Z,21.80
2019-06-07T15:41:28.808Z,21.80
2019-06-07T15:43:58.833Z,21.70
2019-06-07T15:46:29.433Z,21.70
2019-06-07T15:48:58.982Z,21.60
2019-06-07T15:51:28.360Z,21.60
2019-06-07T15:53:58.260Z,21.60
2019-06-07T15:56:27.805Z,21.60
2019-06-07T15:58:58.173Z,21.60
2019-06-07T16:01:27.614Z,21.50
2019-06-07T16:03:57.110Z,21.50
2019-06-07T16:06:26.504Z,21.60
2019-06-07T16:08:55.904Z,21.70
2019-06-07T16:11:25.379Z,21.70
2019-06-07T16:13:54.841Z,21.80
2019-06-07T16:16:24.628Z,21.80
2019-06-07T16:18:54.053Z,21.80
2019-06-07T16:21:23.453Z,21.90
2019-06-07T16:23:52.840Z,22.00
2019-06-07T16:26:22.289Z,22.00
2019-06-07T16:28:51.756Z,22.00
2019-06-07T16:31:21.136Z,22.10
2019-06-07T16:33:50.654Z,22.10
2019-06-07T16:36:20.386Z,22.00
2019-06-07T16:38:50.856Z,21.90
2019-06-07T16:41:20.317Z,22.00
2019-06-07T16:43:49.735Z,21.90
2019-06-07T16:46:19.130Z,22.00
2019-06-07T16:48:49.120Z,22.00
2019-06-07T16:51:18.748Z,22.00
2019-06-07T16:53:49.285Z,22.00
2019-06-07T16:56:18.670Z,22.00
2019-06-07T16:58:48.735Z,22.00
2019-06-07T17:01:18.316Z,21.90
2019-06-07T17:03:47.773Z,21.80
2019-06-07T17:06:17.177Z,21.90
2019-06-07T17:08:46.560Z,21.90
2019-06-07T17:11:16.046Z,21.90
2019-06-07T17:13:46.481Z,21.80
2019-06-07T17:16:15.976Z,21.80
2019-06-07T17:18:45.469Z,21.90
2019-06-07T17:21:14.914Z,21.80
2019-06-07T17:23:45.314Z,21.80
2019-06-07T17:26:14.857Z,21.90
2019-06-07T17:28:44.255Z,22.00
2019-06-07T17:31:13.644Z,21.90
2019-06-07T17:33:43.956Z,21.80
2019-06-07T17:36:13.534Z,21.70
2019-06-07T17:38:42.988Z,21.70
2019-06-07T17:41:41.874Z,21.80
2019-06-07T17:44:03.022Z,21.70
2019-06-07T17:46:32.581Z,21.70
2019-06-07T17:49:02.125Z,21.70
2019-06-07T17:51:31.584Z,21.70
2019-06-07T17:54:00.988Z,21.70
2019-06-07T17:56:30.433Z,21.70
2019-06-07T17:58:59.908Z,21.70
2019-06-07T18:01:41.202Z,21.70
2019-06-07T18:04:14.440Z,21.70
2019-06-07T18:06:45.368Z,21.60
2019-06-07T18:09:15.448Z,21.50
2019-06-07T18:11:45.838Z,21.50
2019-06-07T18:14:15.437Z,21.40
2019-06-07T18:16:46.330Z,21.50
2019-06-07T18:19:16.000Z,21.60
2019-06-07T18:21:45.471Z,21.60
2019-06-07T18:24:14.871Z,21.70
2019-06-07T18:26:44.271Z,21.60
2019-06-07T18:29:13.748Z,21.70
2019-06-07T18:31:43.321Z,21.70
2019-06-07T18:34:12.848Z,21.70
2019-06-07T18:36:42.375Z,21.70
2019-06-07T18:39:11.817Z,21.80
2019-06-07T18:41:41.218Z,21.70
2019-06-07T18:44:21.062Z,21.70
2019-06-07T18:46:41.998Z,21.70
2019-06-07T18:49:11.545Z,21.70
2019-06-07T18:51:41.023Z,21.70
2019-06-07T18:54:10.436Z,21.70
2019-06-07T18:56:39.889Z,21.70
2019-06-07T18:59:09.361Z,21.70
2019-06-07T19:01:38.920Z,21.60
2019-06-07T19:04:10.402Z,21.40
2019-06-07T19:06:39.866Z,21.40
2019-06-07T19:09:23.467Z,21.40
2019-06-07T19:11:53.166Z,21.30
2019-06-07T19:14:36.258Z,21.30
2019-06-07T19:16:53.958Z,21.40
2019-06-07T19:19:23.526Z,21.50
2019-06-07T19:21:54.004Z,21.60
2019-06-07T19:24:23.597Z,21.60
2019-06-07T19:26:54.420Z,21.70
2019-06-07T19:29:23.873Z,21.70
2019-06-07T19:31:53.327Z,21.70
2019-06-07T19:34:22.733Z,21.70
2019-06-07T19:36:53.497Z,21.80
2019-06-07T19:39:24.352Z,21.70
2019-06-07T19:41:54.010Z,21.80
2019-06-07T19:44:23.526Z,21.80
2019-06-07T19:46:54.253Z,21.80
2019-06-07T19:49:23.791Z,21.70
2019-06-07T19:51:53.198Z,21.60
2019-06-07T19:54:22.654Z,21.60
2019-06-07T19:56:53.305Z,21.70
2019-06-07T19:59:22.837Z,21.80
2019-06-07T20:01:53.560Z,21.80
2019-06-07T20:04:23.080Z,21.70
2019-06-07T20:06:52.488Z,21.70
2019-06-07T20:09:21.874Z,21.80
2019-06-07T20:11:51.351Z,21.70
2019-06-07T20:14:20.817Z,21.70
2019-06-07T20:16:50.220Z,21.70
2019-06-07T20:19:19.626Z,21.70
2019-06-07T20:21:49.108Z,21.70
2019-06-07T20:24:27.088Z,21.70
2019-06-07T20:26:50.891Z,21.70
2019-06-07T20:29:25.841Z,21.70
2019-06-07T20:31:51.372Z,21.60
2019-06-07T20:34:20.768Z,21.60
2019-06-07T20:36:50.157Z,21.50
2019-06-07T20:39:33.871Z,21.50
2019-06-07T20:42:03.505Z,21.40
2019-06-07T20:44:33.254Z,21.40
2019-06-07T20:47:04.081Z,21.30
2019-06-07T20:49:33.813Z,21.20
2019-06-07T20:52:04.729Z,21.30
2019-06-07T20:54:34.310Z,21.40
2019-06-07T20:57:04.776Z,21.30
2019-06-07T20:59:34.354Z,21.30
2019-06-07T21:02:05.209Z,21.40
2019-06-07T21:04:34.677Z,21.30
2019-06-07T21:07:05.347Z,21.30
2019-06-07T21:09:34.900Z,21.40
2019-06-07T21:12:04.299Z,21.40
2019-06-07T21:14:33.686Z,21.40
2019-06-07T21:17:04.180Z,21.30
2019-06-07T21:19:33.716Z,21.20
2019-06-07T21:22:04.478Z,21.30
2019-06-07T21:24:34.087Z,21.20
2019-06-07T21:27:05.238Z,21.20
2019-06-07T21:29:34.915Z,21.20
2019-06-07T21:32:05.436Z,21.20
2019-06-07T21:34:36.178Z,21.30
2019-06-07T21:37:05.687Z,21.30
2019-06-07T21:39:35.150Z,21.20
2019-06-07T21:42:04.549Z,21.20
2019-06-07T21:44:35.030Z,21.20
2019-06-07T21:47:04.484Z,21.10
2019-06-07T21:49:33.908Z,21.10
2019-06-07T21:52:04.371Z,21.00
2019-06-07T21:54:33.971Z,21.00
2019-06-07T21:57:04.667Z,21.00
2019-06-07T21:59:34.259Z,21.10
2019-06-07T22:02:05.381Z,21.10
2019-06-07T22:04:34.920Z,21.20
2019-06-07T22:07:05.298Z,21.20
2019-06-07T22:09:34.864Z,21.10
2019-06-07T22:12:18.206Z,21.00
2019-06-07T22:14:47.672Z,21.00
2019-06-07T22:17:17.075Z,21.00
2019-06-07T22:19:46.503Z,21.00
2019-06-07T22:22:15.954Z,21.00
2019-06-07T22:24:45.351Z,20.90
2019-06-07T22:27:15.655Z,20.80
2019-06-07T22:29:46.272Z,20.80
2019-06-07T22:32:15.657Z,20.90
2019-06-07T22:34:45.041Z,20.90
2019-06-07T22:37:33.785Z,21.00
2019-06-07T22:40:06.238Z,20.80
2019-06-07T22:42:35.800Z,20.90
2019-06-07T22:45:07.930Z,20.90
2019-06-07T22:47:37.602Z,20.80
2019-06-07T22:50:11.049Z,20.90
2019-06-07T22:52:41.896Z,20.80
2019-06-07T22:55:12.160Z,20.90
2019-06-07T22:57:55.643Z,21.00
2019-06-07T23:00:27.321Z,21.00
2019-06-07T23:02:56.875Z,20.90
2019-06-07T23:05:26.346Z,20.90
2019-06-07T23:07:55.872Z,20.80
2019-06-07T23:10:25.447Z,20.80
2019-06-07T23:12:54.836Z,20.90
2019-06-07T23:15:24.234Z,20.90
2019-06-07T23:17:53.627Z,21.00
2019-06-07T23:20:23.204Z,20.80
2019-06-07T23:22:52.658Z,20.80
2019-06-07T23:25:24.326Z,20.80
2019-06-07T23:27:53.141Z,20.80
2019-06-07T23:30:22.596Z,20.80
2019-06-07T23:32:52.088Z,20.80
2019-06-07T23:35:21.477Z,20.80
2019-06-07T23:37:50.943Z,20.80
2019-06-07T23:40:21.586Z,20.80
2019-06-07T23:42:52.281Z,20.80
2019-06-07T23:45:21.826Z,20.90
2019-06-07T23:47:51.298Z,21.00
2019-06-07T23:50:21.868Z,21.00
2019-06-07T23:52:51.457Z,20.90
2019-06-07T23:55:22.185Z,20.90
2019-06-07T23:57:51.901Z,20.80
